sensor_id;sensor_type;location;lat;lon;timestamp;P1;durP1;ratioP1;P2;durP2;ratioP2
13331;SDS011;6735;51.456;12.626;2022-12-13T00:01:48;24.40;;;18.67;;
13331;SDS011;6735;51.456;12.626;2022-12-13T00:04:15;27.07;;;18.77;;
13331;SDS011;6735;51.456;12.626;2022-12-13T00:06:42;26.97;;;19.40;;
13331;SDS011;6735;51.456;12.626;2022-12-13T00:09:09;26.23;;;19.90;;
13331;SDS011;6735;51.456;12.626;2022-12-13T00:11:37;26.27;;;19.67;;
13331;SDS011;6735;51.456;12.626;2022-12-13T00:14:02;28.93;;;20.83;;
13331;SDS011;6735;51.456;12.626;2022-12-13T00:16:28;28.07;;;20.73;;
13331;SDS011;6735;51.456;12.626;2022-12-13T00:18:54;29.47;;;20.43;;
13331;SDS011;6735;51.456;12.626;2022-12-13T00:21:23;29.70;;;20.80;;
13331;SDS011;6735;51.456;12.626;2022-12-13T00:23:51;29.10;;;20.43;;
13331;SDS011;6735;51.456;12.626;2022-12-13T00:26:21;28.63;;;19.77;;
13331;SDS011;6735;51.456;12.626;2022-12-13T00:28:48;27.40;;;20.40;;
13331;SDS011;6735;51.456;12.626;2022-12-13T00:31:15;31.53;;;21.87;;
13331;SDS011;6735;51.456;12.626;2022-12-13T00:33:42;29.93;;;22.40;;
13331;SDS011;6735;51.456;12.626;2022-12-13T00:36:07;32.97;;;22.10;;
13331;SDS011;6735;51.456;12.626;2022-12-13T00:38:34;31.17;;;22.43;;
13331;SDS011;6735;51.456;12.626;2022-12-13T00:41:08;32.80;;;22.93;;
13331;SDS011;6735;51.456;12.626;2022-12-13T00:43:35;30.77;;;22.27;;
13331;SDS011;6735;51.456;12.626;2022-12-13T00:46:01;33.70;;;22.70;;
13331;SDS011;6735;51.456;12.626;2022-12-13T00:48:26;34.43;;;23.43;;
13331;SDS011;6735;51.456;12.626;2022-12-13T00:50:52;31.20;;;21.37;;
13331;SDS011;6735;51.456;12.626;2022-12-13T00:53:17;30.80;;;22.20;;
13331;SDS011;6735;51.456;12.626;2022-12-13T00:55:43;32.90;;;22.13;;
13331;SDS011;6735;51.456;12.626;2022-12-13T00:58:08;31.37;;;22.03;;
13331;SDS011;6735;51.456;12.626;2022-12-13T01:00:34;31.77;;;22.47;;
13331;SDS011;6735;51.456;12.626;2022-12-13T01:03:00;31.17;;;21.43;;
13331;SDS011;6735;51.456;12.626;2022-12-13T01:05:44;32.07;;;22.40;;
13331;SDS011;6735;51.456;12.626;2022-12-13T01:08:12;32.63;;;21.83;;
13331;SDS011;6735;51.456;12.626;2022-12-13T01:10:42;33.77;;;22.37;;
13331;SDS011;6735;51.456;12.626;2022-12-13T01:13:09;31.83;;;22.23;;
13331;SDS011;6735;51.456;12.626;2022-12-13T01:15:38;35.87;;;23.50;;
13331;SDS011;6735;51.456;12.626;2022-12-13T01:18:08;32.90;;;21.23;;
13331;SDS011;6735;51.456;12.626;2022-12-13T01:20:34;32.10;;;22.37;;
13331;SDS011;6735;51.456;12.626;2022-12-13T01:23:00;31.77;;;22.13;;
13331;SDS011;6735;51.456;12.626;2022-12-13T01:25:26;31.53;;;22.57;;
13331;SDS011;6735;51.456;12.626;2022-12-13T01:27:51;34.63;;;22.77;;
13331;SDS011;6735;51.456;12.626;2022-12-13T01:30:17;33.30;;;22.63;;
13331;SDS011;6735;51.456;12.626;2022-12-13T01:32:42;30.00;;;21.60;;
13331;SDS011;6735;51.456;12.626;2022-12-13T01:35:08;30.40;;;22.50;;
13331;SDS011;6735;51.456;12.626;2022-12-13T01:37:33;30.93;;;22.07;;
13331;SDS011;6735;51.456;12.626;2022-12-13T01:40:00;32.30;;;22.60;;
13331;SDS011;6735;51.456;12.626;2022-12-13T01:42:27;34.03;;;22.67;;
13331;SDS011;6735;51.456;12.626;2022-12-13T01:45:05;32.93;;;22.37;;
13331;SDS011;6735;51.456;12.626;2022-12-13T01:47:50;34.20;;;23.30;;
13331;SDS011;6735;51.456;12.626;2022-12-13T01:50:31;32.43;;;21.83;;
13331;SDS011;6735;51.456;12.626;2022-12-13T01:53:01;34.07;;;22.60;;
13331;SDS011;6735;51.456;12.626;2022-12-13T01:55:30;34.73;;;23.13;;
13331;SDS011;6735;51.456;12.626;2022-12-13T01:58:00;33.50;;;22.30;;
13331;SDS011;6735;51.456;12.626;2022-12-13T02:00:26;34.30;;;22.43;;
13331;SDS011;6735;51.456;12.626;2022-12-13T02:02:53;35.27;;;23.10;;
13331;SDS011;6735;51.456;12.626;2022-12-13T02:05:41;34.70;;;22.63;;
13331;SDS011;6735;51.456;12.626;2022-12-13T02:08:11;31.97;;;21.80;;
13331;SDS011;6735;51.456;12.626;2022-12-13T02:10:39;32.20;;;22.10;;
13331;SDS011;6735;51.456;12.626;2022-12-13T02:13:06;32.47;;;21.80;;
13331;SDS011;6735;51.456;12.626;2022-12-13T02:18:11;35.03;;;22.53;;
13331;SDS011;6735;51.456;12.626;2022-12-13T02:34:33;36.50;;;23.53;;
13331;SDS011;6735;51.456;12.626;2022-12-13T02:39:59;36.27;;;23.27;;
13331;SDS011;6735;51.456;12.626;2022-12-13T02:42:36;34.33;;;22.90;;
13331;SDS011;6735;51.456;12.626;2022-12-13T02:45:14;33.60;;;21.10;;
13331;SDS011;6735;51.456;12.626;2022-12-13T02:47:44;33.87;;;22.67;;
13331;SDS011;6735;51.456;12.626;2022-12-13T02:50:11;34.50;;;21.93;;
13331;SDS011;6735;51.456;12.626;2022-12-13T02:52:39;33.63;;;21.63;;
13331;SDS011;6735;51.456;12.626;2022-12-13T02:55:08;31.43;;;21.70;;
13331;SDS011;6735;51.456;12.626;2022-12-13T02:57:38;35.57;;;22.73;;
13331;SDS011;6735;51.456;12.626;2022-12-13T03:00:10;33.33;;;22.00;;
13331;SDS011;6735;51.456;12.626;2022-12-13T03:11:16;39.47;;;24.03;;
13331;SDS011;6735;51.456;12.626;2022-12-13T03:18:47;35.73;;;21.70;;
13331;SDS011;6735;51.456;12.626;2022-12-13T03:21:14;36.37;;;23.67;;
13331;SDS011;6735;51.456;12.626;2022-12-13T03:23:39;33.60;;;22.03;;
13331;SDS011;6735;51.456;12.626;2022-12-13T03:26:16;31.73;;;20.30;;
13331;SDS011;6735;51.456;12.626;2022-12-13T03:28:45;34.53;;;21.10;;
13331;SDS011;6735;51.456;12.626;2022-12-13T03:31:11;31.90;;;20.50;;
13331;SDS011;6735;51.456;12.626;2022-12-13T03:33:36;32.83;;;21.17;;
13331;SDS011;6735;51.456;12.626;2022-12-13T03:36:03;32.03;;;20.50;;
13331;SDS011;6735;51.456;12.626;2022-12-13T03:38:29;31.23;;;21.17;;
13331;SDS011;6735;51.456;12.626;2022-12-13T03:40:59;33.20;;;22.10;;
13331;SDS011;6735;51.456;12.626;2022-12-13T03:43:29;31.20;;;20.23;;
13331;SDS011;6735;51.456;12.626;2022-12-13T03:45:55;30.47;;;20.80;;
13331;SDS011;6735;51.456;12.626;2022-12-13T03:48:21;33.70;;;21.07;;
13331;SDS011;6735;51.456;12.626;2022-12-13T03:50:47;30.90;;;21.10;;
13331;SDS011;6735;51.456;12.626;2022-12-13T03:53:12;32.37;;;20.50;;
13331;SDS011;6735;51.456;12.626;2022-12-13T03:55:38;35.13;;;21.10;;
13331;SDS011;6735;51.456;12.626;2022-12-13T03:58:04;30.27;;;19.80;;
13331;SDS011;6735;51.456;12.626;2022-12-13T04:00:29;38.13;;;28.63;;
13331;SDS011;6735;51.456;12.626;2022-12-13T04:02:55;33.43;;;22.77;;
13331;SDS011;6735;51.456;12.626;2022-12-13T04:05:20;33.17;;;21.60;;
13331;SDS011;6735;51.456;12.626;2022-12-13T04:07:46;32.53;;;21.03;;
13331;SDS011;6735;51.456;12.626;2022-12-13T04:10:12;32.13;;;20.47;;
13331;SDS011;6735;51.456;12.626;2022-12-13T04:12:38;35.03;;;21.47;;
13331;SDS011;6735;51.456;12.626;2022-12-13T04:15:22;32.87;;;20.77;;
13331;SDS011;6735;51.456;12.626;2022-12-13T04:17:47;27.93;;;18.77;;
13331;SDS011;6735;51.456;12.626;2022-12-13T04:20:13;29.47;;;19.70;;
13331;SDS011;6735;51.456;12.626;2022-12-13T04:22:38;30.97;;;20.27;;
13331;SDS011;6735;51.456;12.626;2022-12-13T04:25:04;29.43;;;19.03;;
13331;SDS011;6735;51.456;12.626;2022-12-13T04:27:30;31.67;;;20.07;;
13331;SDS011;6735;51.456;12.626;2022-12-13T04:29:55;31.47;;;19.70;;
13331;SDS011;6735;51.456;12.626;2022-12-13T04:32:21;28.27;;;18.77;;
13331;SDS011;6735;51.456;12.626;2022-12-13T04:34:46;29.60;;;18.93;;
13331;SDS011;6735;51.456;12.626;2022-12-13T04:37:12;30.77;;;19.43;;
13331;SDS011;6735;51.456;12.626;2022-12-13T04:39:37;30.33;;;19.43;;
13331;SDS011;6735;51.456;12.626;2022-12-13T04:42:03;29.03;;;19.20;;
13331;SDS011;6735;51.456;12.626;2022-12-13T04:44:29;28.03;;;19.00;;
13331;SDS011;6735;51.456;12.626;2022-12-13T04:46:54;25.90;;;17.83;;
13331;SDS011;6735;51.456;12.626;2022-12-13T04:49:20;27.90;;;19.13;;
13331;SDS011;6735;51.456;12.626;2022-12-13T04:51:46;25.43;;;17.47;;
13331;SDS011;6735;51.456;12.626;2022-12-13T04:54:11;29.50;;;18.93;;
13331;SDS011;6735;51.456;12.626;2022-12-13T04:56:37;26.67;;;18.07;;
13331;SDS011;6735;51.456;12.626;2022-12-13T04:59:02;26.47;;;18.27;;
13331;SDS011;6735;51.456;12.626;2022-12-13T05:01:28;29.60;;;19.07;;
13331;SDS011;6735;51.456;12.626;2022-12-13T05:03:53;27.97;;;18.67;;
13331;SDS011;6735;51.456;12.626;2022-12-13T05:06:19;26.67;;;17.63;;
13331;SDS011;6735;51.456;12.626;2022-12-13T05:08:44;28.17;;;18.70;;
13331;SDS011;6735;51.456;12.626;2022-12-13T05:11:10;28.80;;;18.47;;
13331;SDS011;6735;51.456;12.626;2022-12-13T05:13:35;29.33;;;18.40;;
13331;SDS011;6735;51.456;12.626;2022-12-13T05:16:02;27.20;;;18.13;;
13331;SDS011;6735;51.456;12.626;2022-12-13T05:18:29;27.43;;;19.10;;
13331;SDS011;6735;51.456;12.626;2022-12-13T05:20:55;27.23;;;18.27;;
13331;SDS011;6735;51.456;12.626;2022-12-13T05:23:25;27.60;;;17.77;;
13331;SDS011;6735;51.456;12.626;2022-12-13T05:25:50;24.63;;;17.37;;
13331;SDS011;6735;51.456;12.626;2022-12-13T05:28:16;25.37;;;17.80;;
13331;SDS011;6735;51.456;12.626;2022-12-13T05:30:42;27.43;;;17.70;;
13331;SDS011;6735;51.456;12.626;2022-12-13T05:33:08;24.80;;;17.13;;
13331;SDS011;6735;51.456;12.626;2022-12-13T05:35:33;27.27;;;17.83;;
13331;SDS011;6735;51.456;12.626;2022-12-13T05:37:59;24.93;;;17.43;;
13331;SDS011;6735;51.456;12.626;2022-12-13T05:40:26;27.63;;;17.87;;
13331;SDS011;6735;51.456;12.626;2022-12-13T05:42:53;24.37;;;16.83;;
13331;SDS011;6735;51.456;12.626;2022-12-13T05:45:19;24.37;;;17.00;;
13331;SDS011;6735;51.456;12.626;2022-12-13T05:47:46;26.63;;;17.23;;
13331;SDS011;6735;51.456;12.626;2022-12-13T05:50:12;24.97;;;17.23;;
13331;SDS011;6735;51.456;12.626;2022-12-13T05:52:39;24.30;;;17.77;;
13331;SDS011;6735;51.456;12.626;2022-12-13T05:55:06;25.90;;;17.83;;
13331;SDS011;6735;51.456;12.626;2022-12-13T05:57:31;27.10;;;17.70;;
13331;SDS011;6735;51.456;12.626;2022-12-13T05:59:57;28.67;;;18.13;;
13331;SDS011;6735;51.456;12.626;2022-12-13T06:02:22;28.23;;;19.30;;
13331;SDS011;6735;51.456;12.626;2022-12-13T06:04:48;26.87;;;18.13;;
13331;SDS011;6735;51.456;12.626;2022-12-13T06:07:13;24.17;;;17.67;;
13331;SDS011;6735;51.456;12.626;2022-12-13T06:09:39;24.23;;;16.90;;
13331;SDS011;6735;51.456;12.626;2022-12-13T06:12:05;24.43;;;17.23;;
13331;SDS011;6735;51.456;12.626;2022-12-13T06:14:31;27.92;;;18.35;;
13331;SDS011;6735;51.456;12.626;2022-12-13T06:16:57;26.87;;;18.03;;
13331;SDS011;6735;51.456;12.626;2022-12-13T06:19:22;27.40;;;16.90;;
13331;SDS011;6735;51.456;12.626;2022-12-13T06:21:48;22.13;;;15.90;;
13331;SDS011;6735;51.456;12.626;2022-12-13T06:24:16;23.27;;;16.27;;
13331;SDS011;6735;51.456;12.626;2022-12-13T06:26:43;25.90;;;16.67;;
13331;SDS011;6735;51.456;12.626;2022-12-13T06:29:08;24.30;;;16.27;;
13331;SDS011;6735;51.456;12.626;2022-12-13T06:31:34;23.57;;;17.23;;
13331;SDS011;6735;51.456;12.626;2022-12-13T06:34:00;21.83;;;15.50;;
13331;SDS011;6735;51.456;12.626;2022-12-13T06:36:29;22.77;;;16.03;;
13331;SDS011;6735;51.456;12.626;2022-12-13T06:38:55;22.30;;;15.97;;
13331;SDS011;6735;51.456;12.626;2022-12-13T06:41:20;24.37;;;17.03;;
13331;SDS011;6735;51.456;12.626;2022-12-13T06:43:46;26.90;;;18.47;;
13331;SDS011;6735;51.456;12.626;2022-12-13T06:46:12;28.80;;;19.30;;
13331;SDS011;6735;51.456;12.626;2022-12-13T06:48:39;29.77;;;19.30;;
13331;SDS011;6735;51.456;12.626;2022-12-13T06:51:05;26.57;;;17.50;;
13331;SDS011;6735;51.456;12.626;2022-12-13T06:53:31;25.23;;;17.03;;
13331;SDS011;6735;51.456;12.626;2022-12-13T06:56:02;24.03;;;17.17;;
13331;SDS011;6735;51.456;12.626;2022-12-13T06:58:33;26.23;;;16.33;;
13331;SDS011;6735;51.456;12.626;2022-12-13T07:01:03;22.60;;;16.07;;
13331;SDS011;6735;51.456;12.626;2022-12-13T07:03:31;25.37;;;15.53;;
13331;SDS011;6735;51.456;12.626;2022-12-13T07:05:57;24.80;;;15.83;;
13331;SDS011;6735;51.456;12.626;2022-12-13T07:08:23;23.97;;;16.70;;
13331;SDS011;6735;51.456;12.626;2022-12-13T07:10:50;24.40;;;16.67;;
13331;SDS011;6735;51.456;12.626;2022-12-13T07:13:17;28.50;;;19.23;;
13331;SDS011;6735;51.456;12.626;2022-12-13T07:15:45;28.03;;;18.53;;
13331;SDS011;6735;51.456;12.626;2022-12-13T07:18:10;28.57;;;18.67;;
13331;SDS011;6735;51.456;12.626;2022-12-13T07:20:37;27.87;;;18.63;;
13331;SDS011;6735;51.456;12.626;2022-12-13T07:23:03;29.40;;;19.63;;
13331;SDS011;6735;51.456;12.626;2022-12-13T07:25:29;32.00;;;19.63;;
13331;SDS011;6735;51.456;12.626;2022-12-13T07:27:58;28.60;;;18.60;;
13331;SDS011;6735;51.456;12.626;2022-12-13T07:30:25;30.13;;;19.07;;
13331;SDS011;6735;51.456;12.626;2022-12-13T07:32:50;25.27;;;17.93;;
13331;SDS011;6735;51.456;12.626;2022-12-13T07:35:16;27.63;;;17.90;;
13331;SDS011;6735;51.456;12.626;2022-12-13T07:37:41;28.37;;;19.33;;
13331;SDS011;6735;51.456;12.626;2022-12-13T07:40:07;26.13;;;17.40;;
13331;SDS011;6735;51.456;12.626;2022-12-13T07:42:34;25.63;;;18.40;;
13331;SDS011;6735;51.456;12.626;2022-12-13T07:44:59;28.40;;;18.93;;
13331;SDS011;6735;51.456;12.626;2022-12-13T07:47:31;28.47;;;19.53;;
13331;SDS011;6735;51.456;12.626;2022-12-13T07:49:57;28.87;;;20.07;;
13331;SDS011;6735;51.456;12.626;2022-12-13T07:52:22;28.33;;;19.37;;
13331;SDS011;6735;51.456;12.626;2022-12-13T07:54:48;25.13;;;16.90;;
13331;SDS011;6735;51.456;12.626;2022-12-13T07:57:14;24.97;;;16.83;;
13331;SDS011;6735;51.456;12.626;2022-12-13T07:59:39;26.60;;;17.97;;
13331;SDS011;6735;51.456;12.626;2022-12-13T08:02:05;25.87;;;17.70;;
13331;SDS011;6735;51.456;12.626;2022-12-13T08:04:36;29.13;;;16.63;;
13331;SDS011;6735;51.456;12.626;2022-12-13T08:07:02;27.63;;;18.27;;
13331;SDS011;6735;51.456;12.626;2022-12-13T08:09:30;26.80;;;19.43;;
13331;SDS011;6735;51.456;12.626;2022-12-13T08:11:56;25.70;;;17.97;;
13331;SDS011;6735;51.456;12.626;2022-12-13T08:14:21;27.97;;;19.30;;
13331;SDS011;6735;51.456;12.626;2022-12-13T08:16:47;26.30;;;18.63;;
13331;SDS011;6735;51.456;12.626;2022-12-13T08:19:12;23.80;;;17.80;;
13331;SDS011;6735;51.456;12.626;2022-12-13T08:21:38;25.30;;;18.03;;
13331;SDS011;6735;51.456;12.626;2022-12-13T08:24:05;26.97;;;18.80;;
13331;SDS011;6735;51.456;12.626;2022-12-13T08:26:31;28.27;;;19.63;;
13331;SDS011;6735;51.456;12.626;2022-12-13T08:28:57;27.83;;;19.30;;
13331;SDS011;6735;51.456;12.626;2022-12-13T08:31:23;23.73;;;17.17;;
13331;SDS011;6735;51.456;12.626;2022-12-13T08:33:49;24.73;;;16.80;;
13331;SDS011;6735;51.456;12.626;2022-12-13T08:36:15;25.60;;;16.97;;
13331;SDS011;6735;51.456;12.626;2022-12-13T08:38:42;26.20;;;18.10;;
13331;SDS011;6735;51.456;12.626;2022-12-13T08:41:08;25.83;;;17.57;;
13331;SDS011;6735;51.456;12.626;2022-12-13T08:43:34;26.10;;;17.97;;
13331;SDS011;6735;51.456;12.626;2022-12-13T08:46:06;26.97;;;17.23;;
13331;SDS011;6735;51.456;12.626;2022-12-13T08:48:32;26.33;;;17.37;;
13331;SDS011;6735;51.456;12.626;2022-12-13T08:51:08;25.23;;;17.27;;
13331;SDS011;6735;51.456;12.626;2022-12-13T08:53:39;25.07;;;18.40;;
13331;SDS011;6735;51.456;12.626;2022-12-13T08:56:05;27.57;;;17.80;;
13331;SDS011;6735;51.456;12.626;2022-12-13T08:58:34;25.40;;;17.43;;
13331;SDS011;6735;51.456;12.626;2022-12-13T09:01:00;27.47;;;17.33;;
13331;SDS011;6735;51.456;12.626;2022-12-13T09:03:28;26.60;;;18.27;;
13331;SDS011;6735;51.456;12.626;2022-12-13T09:05:54;26.23;;;18.13;;
13331;SDS011;6735;51.456;12.626;2022-12-13T09:08:19;26.23;;;18.07;;
13331;SDS011;6735;51.456;12.626;2022-12-13T09:10:45;26.00;;;18.10;;
13331;SDS011;6735;51.456;12.626;2022-12-13T09:13:19;25.07;;;18.13;;
13331;SDS011;6735;51.456;12.626;2022-12-13T09:15:45;27.27;;;18.37;;
13331;SDS011;6735;51.456;12.626;2022-12-13T09:18:10;28.07;;;19.53;;
13331;SDS011;6735;51.456;12.626;2022-12-13T09:20:36;26.70;;;18.93;;
13331;SDS011;6735;51.456;12.626;2022-12-13T09:23:02;25.00;;;18.10;;
13331;SDS011;6735;51.456;12.626;2022-12-13T09:25:29;25.10;;;18.73;;
13331;SDS011;6735;51.456;12.626;2022-12-13T09:27:55;29.17;;;19.23;;
13331;SDS011;6735;51.456;12.626;2022-12-13T09:30:20;27.63;;;18.97;;
13331;SDS011;6735;51.456;12.626;2022-12-13T09:32:46;26.30;;;19.27;;
13331;SDS011;6735;51.456;12.626;2022-12-13T09:35:13;26.93;;;19.17;;
13331;SDS011;6735;51.456;12.626;2022-12-13T09:37:39;40.13;;;24.93;;
13331;SDS011;6735;51.456;12.626;2022-12-13T09:40:05;46.23;;;29.07;;
13331;SDS011;6735;51.456;12.626;2022-12-13T09:42:31;35.93;;;23.77;;
13331;SDS011;6735;51.456;12.626;2022-12-13T09:44:59;30.73;;;19.33;;
13331;SDS011;6735;51.456;12.626;2022-12-13T09:47:33;27.20;;;18.73;;
13331;SDS011;6735;51.456;12.626;2022-12-13T09:50:21;33.07;;;20.10;;
13331;SDS011;6735;51.456;12.626;2022-12-13T09:52:59;27.33;;;17.20;;
13331;SDS011;6735;51.456;12.626;2022-12-13T09:55:27;26.10;;;18.33;;
13331;SDS011;6735;51.456;12.626;2022-12-13T09:57:56;26.20;;;18.30;;
13331;SDS011;6735;51.456;12.626;2022-12-13T10:00:24;27.67;;;19.77;;
13331;SDS011;6735;51.456;12.626;2022-12-13T10:02:57;26.07;;;18.83;;
13331;SDS011;6735;51.456;12.626;2022-12-13T10:05:30;26.33;;;19.17;;
13331;SDS011;6735;51.456;12.626;2022-12-13T10:08:03;25.83;;;18.73;;
13331;SDS011;6735;51.456;12.626;2022-12-13T10:10:32;29.37;;;19.63;;
13331;SDS011;6735;51.456;12.626;2022-12-13T10:13:03;29.20;;;20.13;;
13331;SDS011;6735;51.456;12.626;2022-12-13T10:15:30;24.40;;;17.27;;
13331;SDS011;6735;51.456;12.626;2022-12-13T10:17:59;28.07;;;18.30;;
13331;SDS011;6735;51.456;12.626;2022-12-13T10:20:28;30.80;;;19.50;;
13331;SDS011;6735;51.456;12.626;2022-12-13T10:22:54;31.40;;;19.20;;
13331;SDS011;6735;51.456;12.626;2022-12-13T10:25:39;30.07;;;20.23;;
13331;SDS011;6735;51.456;12.626;2022-12-13T10:28:16;29.80;;;18.70;;
13331;SDS011;6735;51.456;12.626;2022-12-13T10:30:43;30.83;;;19.47;;
13331;SDS011;6735;51.456;12.626;2022-12-13T10:36:15;30.23;;;21.07;;
13331;SDS011;6735;51.456;12.626;2022-12-13T10:39:02;32.47;;;19.37;;
13331;SDS011;6735;51.456;12.626;2022-12-13T10:46:37;28.93;;;20.10;;
13331;SDS011;6735;51.456;12.626;2022-12-13T10:49:13;27.97;;;19.47;;
13331;SDS011;6735;51.456;12.626;2022-12-13T10:51:47;28.33;;;19.00;;
13331;SDS011;6735;51.456;12.626;2022-12-13T10:54:16;29.60;;;19.77;;
13331;SDS011;6735;51.456;12.626;2022-12-13T10:56:49;27.30;;;19.50;;
13331;SDS011;6735;51.456;12.626;2022-12-13T11:01:49;28.23;;;19.20;;
13331;SDS011;6735;51.456;12.626;2022-12-13T11:04:22;31.73;;;19.93;;
13331;SDS011;6735;51.456;12.626;2022-12-13T11:06:51;29.33;;;19.33;;
13331;SDS011;6735;51.456;12.626;2022-12-13T11:09:24;31.30;;;19.87;;
13331;SDS011;6735;51.456;12.626;2022-12-13T11:11:52;31.83;;;19.40;;
13331;SDS011;6735;51.456;12.626;2022-12-13T11:14:22;28.13;;;18.73;;
13331;SDS011;6735;51.456;12.626;2022-12-13T11:17:06;31.00;;;19.77;;
13331;SDS011;6735;51.456;12.626;2022-12-13T11:19:44;30.13;;;20.10;;
13331;SDS011;6735;51.456;12.626;2022-12-13T11:22:18;35.93;;;21.23;;
13331;SDS011;6735;51.456;12.626;2022-12-13T11:24:48;32.60;;;20.50;;
13331;SDS011;6735;51.456;12.626;2022-12-13T11:27:36;30.77;;;19.83;;
13331;SDS011;6735;51.456;12.626;2022-12-13T11:30:20;35.03;;;21.47;;
13331;SDS011;6735;51.456;12.626;2022-12-13T11:32:56;31.70;;;20.60;;
13331;SDS011;6735;51.456;12.626;2022-12-13T11:35:49;34.83;;;21.07;;
13331;SDS011;6735;51.456;12.626;2022-12-13T11:38:25;33.03;;;20.50;;
13331;SDS011;6735;51.456;12.626;2022-12-13T11:41:02;31.23;;;20.50;;
13331;SDS011;6735;51.456;12.626;2022-12-13T11:43:42;32.47;;;20.33;;
13331;SDS011;6735;51.456;12.626;2022-12-13T11:49:03;32.70;;;20.80;;
13331;SDS011;6735;51.456;12.626;2022-12-13T11:51:43;30.07;;;20.97;;
13331;SDS011;6735;51.456;12.626;2022-12-13T11:54:23;35.43;;;20.33;;
13331;SDS011;6735;51.456;12.626;2022-12-13T11:56:56;31.43;;;20.20;;
13331;SDS011;6735;51.456;12.626;2022-12-13T11:59:42;30.50;;;19.67;;
13331;SDS011;6735;51.456;12.626;2022-12-13T12:02:19;28.70;;;18.97;;
13331;SDS011;6735;51.456;12.626;2022-12-13T12:04:57;32.63;;;21.23;;
13331;SDS011;6735;51.456;12.626;2022-12-13T12:07:32;28.93;;;20.50;;
13331;SDS011;6735;51.456;12.626;2022-12-13T12:12:37;31.77;;;20.10;;
13331;SDS011;6735;51.456;12.626;2022-12-13T12:15:19;32.67;;;20.07;;
13331;SDS011;6735;51.456;12.626;2022-12-13T12:17:54;29.43;;;19.57;;
13331;SDS011;6735;51.456;12.626;2022-12-13T12:20:22;33.30;;;20.13;;
13331;SDS011;6735;51.456;12.626;2022-12-13T12:23:21;32.73;;;21.23;;
13331;SDS011;6735;51.456;12.626;2022-12-13T12:25:52;30.63;;;21.33;;
13331;SDS011;6735;51.456;12.626;2022-12-13T12:34:06;26.90;;;19.17;;
13331;SDS011;6735;51.456;12.626;2022-12-13T12:45:23;30.63;;;19.97;;
13331;SDS011;6735;51.456;12.626;2022-12-13T12:48:10;30.97;;;20.80;;
13331;SDS011;6735;51.456;12.626;2022-12-13T12:50:47;29.43;;;19.77;;
13331;SDS011;6735;51.456;12.626;2022-12-13T12:53:41;26.63;;;19.10;;
13331;SDS011;6735;51.456;12.626;2022-12-13T12:59:16;27.97;;;20.10;;
13331;SDS011;6735;51.456;12.626;2022-12-13T13:01:54;31.60;;;19.80;;
13331;SDS011;6735;51.456;12.626;2022-12-13T13:04:43;31.17;;;20.60;;
13331;SDS011;6735;51.456;12.626;2022-12-13T13:07:27;32.17;;;21.10;;
13331;SDS011;6735;51.456;12.626;2022-12-13T13:09:57;27.33;;;18.47;;
13331;SDS011;6735;51.456;12.626;2022-12-13T13:12:25;25.97;;;18.37;;
13331;SDS011;6735;51.456;12.626;2022-12-13T13:14:51;27.60;;;19.80;;
13331;SDS011;6735;51.456;12.626;2022-12-13T13:19:49;30.97;;;20.67;;
13331;SDS011;6735;51.456;12.626;2022-12-13T13:22:31;30.90;;;20.20;;
13331;SDS011;6735;51.456;12.626;2022-12-13T13:25:20;30.50;;;21.37;;
13331;SDS011;6735;51.456;12.626;2022-12-13T13:27:51;32.50;;;19.90;;
13331;SDS011;6735;51.456;12.626;2022-12-13T13:30:25;28.07;;;19.00;;
13331;SDS011;6735;51.456;12.626;2022-12-13T13:32:52;25.47;;;18.83;;
13331;SDS011;6735;51.456;12.626;2022-12-13T13:38:01;29.37;;;19.73;;
13331;SDS011;6735;51.456;12.626;2022-12-13T13:40:29;29.07;;;19.33;;
13331;SDS011;6735;51.456;12.626;2022-12-13T13:51:20;27.90;;;19.60;;
13331;SDS011;6735;51.456;12.626;2022-12-13T13:54:11;26.47;;;18.50;;
13331;SDS011;6735;51.456;12.626;2022-12-13T14:02:57;53.90;;;31.77;;
13331;SDS011;6735;51.456;12.626;2022-12-13T14:05:34;32.80;;;22.10;;
13331;SDS011;6735;51.456;12.626;2022-12-13T14:11:02;27.93;;;19.50;;
13331;SDS011;6735;51.456;12.626;2022-12-13T14:22:03;29.00;;;19.10;;
13331;SDS011;6735;51.456;12.626;2022-12-13T14:29:55;27.47;;;18.17;;
13331;SDS011;6735;51.456;12.626;2022-12-13T14:32:24;26.67;;;18.20;;
13331;SDS011;6735;51.456;12.626;2022-12-13T14:35:02;26.27;;;18.63;;
13331;SDS011;6735;51.456;12.626;2022-12-13T14:37:29;25.50;;;17.83;;
13331;SDS011;6735;51.456;12.626;2022-12-13T14:39:56;24.67;;;17.50;;
13331;SDS011;6735;51.456;12.626;2022-12-13T14:42:24;27.80;;;18.23;;
13331;SDS011;6735;51.456;12.626;2022-12-13T14:44:54;26.93;;;17.30;;
13331;SDS011;6735;51.456;12.626;2022-12-13T14:47:38;27.97;;;17.97;;
13331;SDS011;6735;51.456;12.626;2022-12-13T14:50:05;24.87;;;17.43;;
13331;SDS011;6735;51.456;12.626;2022-12-13T14:52:32;29.17;;;17.73;;
13331;SDS011;6735;51.456;12.626;2022-12-13T14:55:04;29.07;;;18.10;;
13331;SDS011;6735;51.456;12.626;2022-12-13T14:57:31;24.97;;;16.93;;
13331;SDS011;6735;51.456;12.626;2022-12-13T14:59:58;27.90;;;17.23;;
13331;SDS011;6735;51.456;12.626;2022-12-13T15:04:53;29.10;;;18.70;;
13331;SDS011;6735;51.456;12.626;2022-12-13T15:07:22;25.00;;;17.53;;
13331;SDS011;6735;51.456;12.626;2022-12-13T15:10:00;28.00;;;17.10;;
13331;SDS011;6735;51.456;12.626;2022-12-13T15:12:43;25.47;;;17.37;;
13331;SDS011;6735;51.456;12.626;2022-12-13T15:15:17;23.07;;;16.70;;
13331;SDS011;6735;51.456;12.626;2022-12-13T15:17:44;26.67;;;16.43;;
13331;SDS011;6735;51.456;12.626;2022-12-13T15:20:26;27.50;;;16.60;;
13331;SDS011;6735;51.456;12.626;2022-12-13T15:22:58;27.67;;;18.07;;
13331;SDS011;6735;51.456;12.626;2022-12-13T15:25:26;26.87;;;17.47;;
13331;SDS011;6735;51.456;12.626;2022-12-13T15:27:53;23.33;;;16.57;;
13331;SDS011;6735;51.456;12.626;2022-12-13T15:30:19;24.47;;;17.07;;
13331;SDS011;6735;51.456;12.626;2022-12-13T15:33:00;26.80;;;17.13;;
13331;SDS011;6735;51.456;12.626;2022-12-13T15:35:27;21.83;;;16.23;;
13331;SDS011;6735;51.456;12.626;2022-12-13T15:37:53;24.33;;;16.20;;
13331;SDS011;6735;51.456;12.626;2022-12-13T15:40:19;22.87;;;16.23;;
13331;SDS011;6735;51.456;12.626;2022-12-13T15:42:44;27.07;;;16.07;;
13331;SDS011;6735;51.456;12.626;2022-12-13T15:45:21;22.47;;;15.53;;
13331;SDS011;6735;51.456;12.626;2022-12-13T15:47:49;25.10;;;16.17;;
13331;SDS011;6735;51.456;12.626;2022-12-13T15:50:29;24.37;;;15.33;;
13331;SDS011;6735;51.456;12.626;2022-12-13T15:53:02;23.57;;;16.50;;
13331;SDS011;6735;51.456;12.626;2022-12-13T15:55:43;22.90;;;16.27;;
13331;SDS011;6735;51.456;12.626;2022-12-13T16:00:53;22.67;;;16.20;;
13331;SDS011;6735;51.456;12.626;2022-12-13T16:03:20;27.67;;;19.27;;
13331;SDS011;6735;51.456;12.626;2022-12-13T16:05:49;28.17;;;21.98;;
13331;SDS011;6735;51.456;12.626;2022-12-13T16:08:24;28.80;;;19.80;;
13331;SDS011;6735;51.456;12.626;2022-12-13T16:10:53;26.97;;;18.03;;
13331;SDS011;6735;51.456;12.626;2022-12-13T16:13:32;22.97;;;17.47;;
13331;SDS011;6735;51.456;12.626;2022-12-13T16:16:01;25.70;;;16.77;;
13331;SDS011;6735;51.456;12.626;2022-12-13T16:18:56;25.33;;;16.60;;
13331;SDS011;6735;51.456;12.626;2022-12-13T16:21:22;27.85;;;20.92;;
13331;SDS011;6735;51.456;12.626;2022-12-13T16:23:49;23.93;;;17.63;;